Time;durP1;ratioP1;P1;durP2;ratioP2;P2;SDS_P1;SDS_P2;PMS_P1;PMS_P2;Temp;Humidity;BMP_temperature;BMP_pressure;BME280_temperature;BME280_humidity;BME280_pressure;Samples;Min_cycle;Max_cycle;Signal;HPM_P1;HPM_P2
2023/06/06 00:00:16;;;;;;;2.72;2.53;;;21.70;61.50;;;;;;4966360;28;20277;-67
2023/06/06 00:02:45;;;;;;;2.58;2.38;;;21.70;61.40;;;;;;4984489;28;20241;-67
2023/06/06 00:05:13;;;;;;;2.33;2.20;;;21.70;61.40;;;;;;4962140;28;20717;-68
2023/06/06 00:07:40;;;;;;;2.60;2.40;;;21.70;61.40;;;;;;4987315;28;20285;-69
2023/06/06 00:10:09;;;;;;;2.42;2.22;;;21.70;61.40;;;;;;4988133;28;20181;-68
2023/06/06 00:12:36;;;;;;;2.45;2.25;;;21.70;61.40;;;;;;4986560;28;20194;-68
2023/06/06 00:15:03;;;;;;;2.40;2.20;;;21.70;61.50;;;;;;4968907;28;20221;-68
2023/06/06 00:17:30;;;;;;;2.40;2.20;;;21.70;61.50;;;;;;4968837;28;20220;-67
2023/06/06 00:19:56;;;;;;;2.30;2.20;;;21.70;61.40;;;;;;4968790;28;20198;-68
2023/06/06 00:22:23;;;;;;;2.40;2.20;;;21.70;61.50;;;;;;4981791;28;20260;-71
2023/06/06 00:24:53;;;;;;;2.50;2.40;;;21.70;61.40;;;;;;4989326;28;20217;-68
2023/06/06 00:27:20;;;;;;;2.78;2.58;;;21.70;61.40;;;;;;4992427;28;20190;-68
2023/06/06 00:29:47;;;;;;;2.50;2.30;;;21.70;61.40;;;;;;4991819;28;20209;-68
2023/06/06 00:32:12;;;;;;;2.40;2.20;;;21.70;61.40;;;;;;4992532;28;20193;-68
2023/06/06 00:34:38;;;;;;;2.50;2.30;;;21.70;61.50;;;;;;4983949;28;20190;-68
2023/06/06 00:37:04;;;;;;;2.45;2.30;;;21.70;61.40;;;;;;4984100;28;20206;-68
2023/06/06 00:39:30;;;;;;;2.10;2.00;;;21.80;61.50;;;;;;4983801;28;20217;-68
2023/06/06 00:41:56;;;;;;;2.25;2.05;;;21.70;61.50;;;;;;4979596;28;20245;-68
2023/06/06 00:44:21;;;;;;;2.50;2.30;;;21.70;61.40;;;;;;4988345;28;20217;-68
2023/06/06 00:46:49;;;;;;;1.98;1.75;;;21.70;61.50;;;;;;4972849;28;20189;-68
2023/06/06 00:49:17;;;;;;;2.55;2.35;;;21.70;61.50;;;;;;4979080;28;20209;-69
2023/06/06 00:51:45;;;;;;;2.28;2.17;;;21.70;61.50;;;;;;4989138;28;20655;-68
2023/06/06 00:54:13;;;;;;;2.25;2.15;;;21.70;61.50;;;;;;4972787;28;20194;-68
2023/06/06 00:56:43;;;;;;;2.55;2.40;;;21.70;61.50;;;;;;4974092;28;20252;-66
2023/06/06 00:59:10;;;;;;;2.47;2.28;;;21.70;61.50;;;;;;4988410;28;20296;-69
2023/06/06 01:01:38;;;;;;;2.35;2.15;;;21.70;61.60;;;;;;4988617;28;20212;-68
2023/06/06 01:04:08;;;;;;;2.22;2.13;;;21.70;61.50;;;;;;4980224;28;20617;-68
2023/06/06 01:06:37;;;;;;;2.28;2.17;;;21.70;61.50;;;;;;4973235;28;20247;-67
2023/06/06 01:09:09;;;;;;;2.30;2.20;;;21.70;61.60;;;;;;4973785;28;20207;-67
2023/06/06 01:11:45;;;;;;;2.10;2.00;;;21.70;61.50;;;;;;4973610;28;20206;-68
2023/06/06 01:14:25;;;;;;;2.30;2.20;;;21.60;61.40;;;;;;4968595;28;20673;-68
2023/06/06 01:16:57;;;;;;;2.50;2.30;;;21.60;61.40;;;;;;4991341;28;20696;-68
2023/06/06 01:19:29;;;;;;;2.33;2.20;;;21.60;61.40;;;;;;4991256;28;20202;-68
2023/06/06 01:21:58;;;;;;;2.53;2.10;;;21.60;61.40;;;;;;4967934;28;20197;-68
2023/06/06 01:24:26;;;;;;;2.17;2.08;;;21.60;61.40;;;;;;4958939;28;20216;-68
2023/06/06 01:26:54;;;;;;;2.60;2.40;;;21.60;61.40;;;;;;4975500;28;20212;-68
2023/06/06 01:29:21;;;;;;;3.60;2.63;;;21.60;61.50;;;;;;4982368;28;20213;-68
2023/06/06 01:32:05;;;;;;;2.08;1.98;;;21.60;61.40;;;;;;4990552;28;20269;-68
2023/06/06 01:34:48;;;;;;;2.13;2.00;;;21.60;61.40;;;;;;4988521;28;20201;-68
2023/06/06 01:38:03;;;;;;;2.38;2.17;;;21.60;61.50;;;;;;4982693;28;20235;-68
2023/06/06 01:40:32;;;;;;;1.90;1.80;;;21.60;61.40;;;;;;4973169;28;20234;-68
2023/06/06 01:43:02;;;;;;;2.10;2.00;;;21.60;61.40;;;;;;4978631;28;20285;-68
2023/06/06 01:45:30;;;;;;;1.88;1.77;;;21.60;61.40;;;;;;4971289;28;20214;-68
2023/06/06 01:47:59;;;;;;;2.50;2.30;;;21.60;61.50;;;;;;4963973;28;20207;-67
2023/06/06 01:50:25;;;;;;;1.90;1.80;;;21.60;61.50;;;;;;4971381;28;20581;-68
2023/06/06 01:52:55;;;;;;;2.35;2.15;;;21.60;61.50;;;;;;4979454;28;20183;-67
2023/06/06 01:55:22;;;;;;;2.10;2.00;;;21.60;61.50;;;;;;4970532;28;20190;-68
2023/06/06 01:57:48;;;;;;;2.08;1.98;;;21.60;61.50;;;;;;4979752;28;20214;-68
2023/06/06 02:00:16;;;;;;;2.60;2.28;;;21.60;61.50;;;;;;4966229;28;20194;-68
2023/06/06 02:02:42;;;;;;;2.20;2.10;;;21.60;61.50;;;;;;4971428;28;20667;-68
2023/06/06 02:05:08;;;;;;;1.92;1.83;;;21.60;61.50;;;;;;4984344;28;20229;-68
2023/06/06 02:07:34;;;;;;;2.47;2.28;;;21.60;61.50;;;;;;4975212;28;20181;-68
2023/06/06 02:10:02;;;;;;;2.20;2.10;;;21.60;61.50;;;;;;4990528;28;20181;-68
2023/06/06 02:12:28;;;;;;;2.53;2.33;;;21.60;61.50;;;;;;4990247;28;20190;-68
2023/06/06 02:14:54;;;;;;;2.28;2.17;;;21.60;61.60;;;;;;4982663;28;20189;-68
2023/06/06 02:17:21;;;;;;;2.30;2.13;;;21.60;61.50;;;;;;4974281;28;20189;-68
2023/06/06 02:19:46;;;;;;;2.30;2.10;;;21.60;61.50;;;;;;4973719;28;20221;-68
2023/06/06 02:22:13;;;;;;;2.20;2.10;;;21.60;61.50;;;;;;4976422;28;20189;-68
2023/06/06 02:24:42;;;;;;;2.30;2.10;;;21.60;61.50;;;;;;4982117;28;20220;-68
2023/06/06 02:27:11;;;;;;;3.63;2.40;;;21.60;61.50;;;;;;4973775;28;20193;-68
2023/06/06 02:29:37;;;;;;;2.10;2.00;;;21.50;61.30;;;;;;4973525;28;20218;-68
2023/06/06 02:32:03;;;;;;;2.42;2.25;;;21.60;61.50;;;;;;4985843;28;20298;-68
2023/06/06 02:34:29;;;;;;;1.92;1.83;;;21.60;61.50;;;;;;4978690;28;20685;-68
2023/06/06 02:36:56;;;;;;;2.00;1.90;;;21.50;61.30;;;;;;4996749;28;20190;-68
2023/06/06 02:39:23;;;;;;;2.45;2.30;;;21.60;61.50;;;;;;4973392;28;20214;-67
2023/06/06 02:41:52;;;;;;;1.95;1.85;;;21.50;61.30;;;;;;4989085;28;20197;-68
2023/06/06 02:44:19;;;;;;;2.20;2.00;;;21.50;61.40;;;;;;4973489;28;20206;-68
2023/06/06 02:46:46;;;;;;;2.30;2.10;;;21.50;61.40;;;;;;4986440;28;20337;-68
2023/06/06 02:49:12;;;;;;;2.10;2.00;;;21.50;61.40;;;;;;4964366;28;20211;-68
2023/06/06 02:51:40;;;;;;;3.30;2.28;;;21.50;61.40;;;;;;4989815;28;20186;-68
2023/06/06 02:54:06;;;;;;;2.08;1.90;;;21.50;61.40;;;;;;4973331;28;20201;-68
2023/06/06 02:56:32;;;;;;;2.30;2.10;;;21.50;61.30;;;;;;4989423;28;20194;-68
2023/06/06 02:58:58;;;;;;;2.25;2.08;;;21.50;61.30;;;;;;4981406;28;20213;-68
2023/06/06 03:01:25;;;;;;;1.92;1.83;;;21.50;61.40;;;;;;4965240;28;20189;-68
2023/06/06 03:03:51;;;;;;;2.10;2.00;;;21.50;61.30;;;;;;4986829;28;20703;-68
2023/06/06 03:06:20;;;;;;;2.10;2.00;;;21.50;61.30;;;;;;4973041;28;20182;-68
2023/06/06 03:08:46;;;;;;;2.17;2.08;;;21.50;61.30;;;;;;4971336;28;20582;-68
2023/06/06 03:11:12;;;;;;;2.30;2.15;;;21.50;61.30;;;;;;4972952;28;20186;-68
2023/06/06 03:13:38;;;;;;;2.03;1.92;;;21.50;61.30;;;;;;4972309;28;20195;-68
2023/06/06 03:16:05;;;;;;;1.95;1.85;;;21.50;61.30;;;;;;4978856;28;20191;-68
2023/06/06 03:18:36;;;;;;;2.28;2.10;;;21.50;61.30;;;;;;4982421;28;20211;-68
2023/06/06 03:21:07;;;;;;;1.90;1.75;;;21.50;61.40;;;;;;4979060;28;20237;-68
2023/06/06 03:23:40;;;;;;;2.33;2.20;;;21.50;61.30;;;;;;4947149;28;20242;-68
2023/06/06 03:26:06;;;;;;;1.90;1.80;;;21.50;61.30;;;;;;4972679;28;20194;-68
2023/06/06 03:28:32;;;;;;;2.20;2.10;;;21.50;61.30;;;;;;4972766;28;20217;-68
2023/06/06 03:31:01;;;;;;;1.90;1.80;;;21.50;61.40;;;;;;4981221;28;20268;-68
2023/06/06 03:33:32;;;;;;;1.90;1.80;;;21.50;61.40;;;;;;4980846;28;20190;-68
2023/06/06 03:35:59;;;;;;;1.98;1.83;;;21.50;61.30;;;;;;4972796;28;20181;-68
2023/06/06 03:38:27;;;;;;;2.00;1.90;;;21.50;61.40;;;;;;4980901;28;20240;-68
2023/06/06 03:40:53;;;;;;;2.03;1.92;;;21.50;61.30;;;;;;4972170;28;20236;-68
2023/06/06 03:43:19;;;;;;;2.25;1.83;;;21.50;61.40;;;;;;4988623;28;20220;-68
2023/06/06 03:45:45;;;;;;;2.53;2.00;;;21.50;61.40;;;;;;4972076;28;20267;-68
2023/06/06 03:48:12;;;;;;;2.20;2.10;;;21.50;61.30;;;;;;4972370;28;20225;-68
2023/06/06 03:50:39;;;;;;;2.40;2.22;;;21.50;61.30;;;;;;4964402;28;20191;-68
2023/06/06 03:53:06;;;;;;;2.20;2.00;;;21.50;61.30;;;;;;4969635;28;20237;-68
2023/06/06 03:55:33;;;;;;;2.08;1.95;;;21.50;61.30;;;;;;4988544;28;20644;-68
2023/06/06 03:57:59;;;;;;;2.17;2.00;;;21.40;61.20;;;;;;4970437;28;20206;-68
2023/06/06 04:00:25;;;;;;;2.28;2.10;;;21.50;61.30;;;;;;4960463;28;20208;-68
2023/06/06 04:02:51;;;;;;;1.92;1.83;;;21.40;61.20;;;;;;4969033;28;20257;-68
2023/06/06 04:05:18;;;;;;;2.03;1.92;;;21.40;61.20;;;;;;4965993;28;20214;-68
2023/06/06 04:07:45;;;;;;;2.50;2.30;;;21.50;61.30;;;;;;4964217;28;20221;-68
2023/06/06 04:10:11;;;;;;;2.17;1.92;;;21.50;61.30;;;;;;4981667;28;20256;-68
2023/06/06 04:12:40;;;;;;;2.03;1.92;;;21.40;61.20;;;;;;4955644;28;20221;-68
2023/06/06 04:15:09;;;;;;;2.25;2.05;;;21.50;61.30;;;;;;4976975;28;20198;-68
2023/06/06 04:17:35;;;;;;;2.42;2.22;;;21.50;61.30;;;;;;4952485;28;20213;-68
2023/06/06 04:20:03;;;;;;;1.80;1.70;;;21.40;61.20;;;;;;4968613;28;20198;-68
2023/06/06 04:22:29;;;;;;;2.00;1.90;;;21.40;61.20;;;;;;4984113;28;20189;-68
2023/06/06 04:24:55;;;;;;;2.08;1.98;;;21.40;61.20;;;;;;4970393;28;20232;-68
2023/06/06 04:27:23;;;;;;;2.03;1.83;;;21.40;61.20;;;;;;4982683;28;20666;-67
2023/06/06 04:29:53;;;;;;;1.83;1.73;;;21.40;61.30;;;;;;4971827;28;20622;-68
2023/06/06 04:32:19;;;;;;;2.00;1.90;;;21.40;61.30;;;;;;4985135;28;20241;-68
2023/06/06 04:34:46;;;;;;;2.50;2.30;;;21.40;61.30;;;;;;4976904;28;20208;-68
2023/06/06 04:37:14;;;;;;;1.80;1.70;;;21.40;61.30;;;;;;4982053;28;20220;-68
2023/06/06 04:39:41;;;;;;;1.67;1.58;;;21.40;61.30;;;;;;4976835;28;20220;-68
2023/06/06 04:42:07;;;;;;;2.40;2.20;;;21.40;61.30;;;;;;4988077;28;20190;-68
2023/06/06 04:44:34;;;;;;;2.22;2.13;;;21.40;61.20;;;;;;4956649;28;20214;-68
2023/06/06 04:47:01;;;;;;;2.30;2.20;;;21.40;61.30;;;;;;4964617;28;20193;-68
2023/06/06 04:49:35;;;;;;;2.58;1.88;;;21.40;61.30;;;;;;4971608;28;20689;-68
2023/06/06 04:52:12;;;;;;;2.13;2.00;;;21.40;61.30;;;;;;4984722;28;20216;-68
2023/06/06 04:54:40;;;;;;;2.15;1.98;;;21.40;61.30;;;;;;4952450;28;20238;-69
2023/06/06 04:57:15;;;;;;;2.10;2.00;;;21.40;61.30;;;;;;4960671;28;20202;-68
2023/06/06 04:59:53;;;;;;;2.38;1.77;;;21.40;61.30;;;;;;4952394;28;20215;-68
2023/06/06 05:02:28;;;;;;;1.80;1.70;;;21.40;61.30;;;;;;4987932;28;20248;-68
2023/06/06 05:04:56;;;;;;;2.10;2.00;;;21.40;61.30;;;;;;4985960;28;20221;-68
2023/06/06 05:07:23;;;;;;;2.00;1.90;;;21.40;61.30;;;;;;4976486;28;20179;-67
2023/06/06 05:09:52;;;;;;;2.17;1.98;;;21.40;61.30;;;;;;4985426;28;20216;-68
2023/06/06 05:12:19;;;;;;;1.92;1.83;;;21.40;61.40;;;;;;4986518;28;20715;-68
2023/06/06 05:14:45;;;;;;;1.92;1.83;;;21.30;61.30;;;;;;4991389;28;20224;-68
2023/06/06 05:17:17;;;;;;;2.55;2.35;;;21.40;61.40;;;;;;4979139;28;20194;-69
2023/06/06 05:19:45;;;;;;;1.95;1.85;;;21.40;61.40;;;;;;4988280;28;20296;-68
2023/06/06 05:22:13;;;;;;;2.05;1.95;;;21.40;61.40;;;;;;4976302;28;20198;-68
2023/06/06 05:24:38;;;;;;;2.00;1.90;;;21.40;61.30;;;;;;4988138;28;20211;-68
2023/06/06 05:27:05;;;;;;;2.38;2.20;;;21.40;61.30;;;;;;4964631;28;20194;-68
2023/06/06 05:29:31;;;;;;;1.90;1.80;;;21.40;61.30;;;;;;4971444;28;20222;-68
2023/06/06 05:31:57;;;;;;;2.00;1.90;;;21.40;61.30;;;;;;4958924;28;20650;-67
2023/06/06 05:34:23;;;;;;;1.77;1.67;;;21.40;61.30;;;;;;4977196;28;20189;-67
2023/06/06 05:36:48;;;;;;;1.90;1.80;;;21.40;61.30;;;;;;4973590;28;20312;-68
2023/06/06 05:39:14;;;;;;;2.53;2.33;;;21.40;61.40;;;;;;4975974;28;20213;-67
2023/06/06 05:41:40;;;;;;;2.08;1.98;;;21.40;61.40;;;;;;4975029;28;20193;-67
2023/06/06 05:44:05;;;;;;;2.10;2.00;;;21.40;61.40;;;;;;4974471;28;20216;-66
2023/06/06 05:46:31;;;;;;;2.17;2.08;;;21.40;61.40;;;;;;4987595;28;20217;-66
2023/06/06 05:48:57;;;;;;;1.95;1.85;;;21.40;61.40;;;;;;4969855;28;20206;-66
2023/06/06 05:51:23;;;;;;;2.35;2.22;;;21.40;61.40;;;;;;4965378;28;20194;-68
2023/06/06 05:53:48;;;;;;;2.28;2.08;;;21.40;61.40;;;;;;4990871;28;20208;-68
2023/06/06 05:56:16;;;;;;;2.00;1.80;;;21.40;61.40;;;;;;4987716;28;20203;-68
2023/06/06 05:58:46;;;;;;;1.85;1.75;;;21.50;61.50;;;;;;4972158;28;20209;-68
2023/06/06 06:01:12;;;;;;;1.75;1.60;;;21.50;61.50;;;;;;4990250;28;20194;-67
2023/06/06 06:03:39;;;;;;;2.20;2.00;;;21.40;61.40;;;;;;4990518;28;20199;-68
2023/06/06 06:06:08;;;;;;;2.35;2.15;;;21.50;61.50;;;;;;4990552;28;20196;-68
2023/06/06 06:08:35;;;;;;;1.90;1.80;;;21.50;61.50;;;;;;4990531;28;20229;-67
2023/06/06 06:11:02;;;;;;;2.30;2.10;;;21.50;61.50;;;;;;4975572;28;20590;-67
2023/06/06 06:13:28;;;;;;;2.03;1.92;;;21.50;61.50;;;;;;4976629;28;20182;-68
2023/06/06 06:15:54;;;;;;;1.98;1.88;;;21.50;61.50;;;;;;4988351;28;20193;-65
2023/06/06 06:18:20;;;;;;;2.17;2.03;;;21.50;61.50;;;;;;4981549;28;20209;-67
2023/06/06 06:20:46;;;;;;;1.80;1.70;;;21.50;61.50;;;;;;4966760;28;20252;-68
2023/06/06 06:23:12;;;;;;;2.50;1.90;;;21.50;61.50;;;;;;4982082;28;20272;-68
2023/06/06 06:25:38;;;;;;;1.90;1.80;;;21.50;61.50;;;;;;4986122;28;20300;-67
2023/06/06 06:28:04;;;;;;;2.17;2.08;;;21.50;61.60;;;;;;4957392;28;20288;-68
2023/06/06 06:30:30;;;;;;;2.53;2.33;;;21.50;61.60;;;;;;4990134;28;20690;-68
2023/06/06 06:32:56;;;;;;;1.80;1.70;;;21.50;61.50;;;;;;4973598;28;20336;-68
2023/06/06 06:35:22;;;;;;;2.30;2.10;;;21.50;61.60;;;;;;4984800;28;20194;-67
2023/06/06 06:37:47;;;;;;;1.98;1.85;;;21.50;61.60;;;;;;4970678;28;20588;-67
2023/06/06 06:40:14;;;;;;;1.90;1.80;;;21.50;61.60;;;;;;4981556;28;20572;-66
2023/06/06 06:42:43;;;;;;;2.00;1.90;;;21.50;61.60;;;;;;4986649;28;20194;-67
2023/06/06 06:45:28;;;;;;;3.15;2.17;;;21.50;61.60;;;;;;4968417;28;20307;-66
2023/06/06 06:47:53;;;;;;;2.47;2.05;;;21.50;61.60;;;;;;4972076;28;20225;-67
2023/06/06 06:50:20;;;;;;;2.08;1.90;;;21.50;61.60;;;;;;4966717;28;20185;-68
2023/06/06 06:52:45;;;;;;;1.60;1.50;;;21.50;61.60;;;;;;4981269;28;20245;-68
2023/06/06 06:55:11;;;;;;;2.13;1.98;;;21.50;61.60;;;;;;4965977;28;20193;-68
2023/06/06 06:57:39;;;;;;;2.55;1.98;;;21.50;61.60;;;;;;4986140;28;20682;-68
2023/06/06 07:00:18;;;;;;;2.20;2.00;;;21.50;61.60;;;;;;4988627;28;20208;-68
2023/06/06 07:02:46;;;;;;;2.00;1.80;;;21.50;61.50;;;;;;4973505;28;20206;-68
2023/06/06 07:05:14;;;;;;;2.75;2.17;;;21.50;61.60;;;;;;4970002;28;20253;-68
2023/06/06 07:07:52;;;;;;;1.90;1.80;;;21.50;61.60;;;;;;4961901;28;20210;-68
2023/06/06 07:10:21;;;;;;;2.00;1.90;;;21.60;61.70;;;;;;4977820;28;20254;-68
2023/06/06 07:12:49;;;;;;;1.90;1.80;;;21.50;61.60;;;;;;4985713;28;20185;-68
2023/06/06 07:15:17;;;;;;;2.30;2.10;;;21.50;61.50;;;;;;4958848;28;20192;-69
2023/06/06 07:17:46;;;;;;;2.00;1.90;;;21.50;61.60;;;;;;4972738;28;20182;-68
2023/06/06 07:20:12;;;;;;;2.22;2.00;;;21.50;61.50;;;;;;4966062;28;20236;-68
2023/06/06 07:22:38;;;;;;;2.20;2.00;;;21.50;62.30;;;;;;4973010;28;20189;-68
2023/06/06 07:25:05;;;;;;;2.15;1.98;;;21.50;61.50;;;;;;4970655;28;20210;-68
2023/06/06 07:27:37;;;;;;;2.17;1.98;;;21.60;61.70;;;;;;4975376;28;20196;-68
2023/06/06 07:30:12;;;;;;;2.15;1.95;;;21.50;61.50;;;;;;4988834;28;20194;-68
2023/06/06 07:32:44;;;;;;;2.28;2.08;;;21.50;61.40;;;;;;4965963;28;20196;-68
2023/06/06 07:35:16;;;;;;;2.53;2.33;;;21.60;61.60;;;;;;4985097;28;20187;-68
2023/06/06 07:37:42;;;;;;;2.63;2.05;;;21.60;61.60;;;;;;4969853;28;20193;-69
2023/06/06 07:40:11;;;;;;;2.13;2.03;;;21.60;61.60;;;;;;4988803;28;20248;-68
2023/06/06 07:42:39;;;;;;;2.22;2.03;;;21.60;61.50;;;;;;4985785;28;20197;-68
2023/06/06 07:45:06;;;;;;;2.33;2.03;;;21.60;61.50;;;;;;4972524;28;20201;-68
2023/06/06 07:47:31;;;;;;;2.20;2.00;;;21.60;61.50;;;;;;4985386;28;20186;-68
2023/06/06 07:49:58;;;;;;;2.30;2.08;;;21.60;61.40;;;;;;4986821;28;20182;-68
2023/06/06 07:52:25;;;;;;;2.35;2.15;;;21.60;61.40;;;;;;4975782;28;20189;-68
2023/06/06 07:54:51;;;;;;;2.17;2.03;;;21.60;61.30;;;;;;4969379;28;20204;-68
2023/06/06 07:57:17;;;;;;;2.65;2.45;;;21.60;61.30;;;;;;4973539;28;20201;-67
2023/06/06 07:59:44;;;;;;;2.30;2.10;;;21.60;61.30;;;;;;4955985;28;20213;-68
2023/06/06 08:02:13;;;;;;;2.30;2.08;;;21.60;61.30;;;;;;4956372;28;20276;-68
2023/06/06 08:04:45;;;;;;;1.92;1.83;;;21.60;61.20;;;;;;4988514;28;20245;-68
2023/06/06 08:07:15;;;;;;;1.95;1.85;;;21.60;61.30;;;;;;4988569;28;20196;-68
2023/06/06 08:09:42;;;;;;;2.20;2.00;;;21.70;61.40;;;;;;4981255;28;20214;-68
2023/06/06 08:12:09;;;;;;;2.20;2.00;;;21.60;61.20;;;;;;4986682;28;20182;-68
2023/06/06 08:14:35;;;;;;;2.42;2.22;;;21.70;61.20;;;;;;4972145;28;20258;-68
2023/06/06 08:17:03;;;;;;;2.50;2.30;;;21.70;61.10;;;;;;4970684;28;20272;-68
2023/06/06 08:19:29;;;;;;;2.45;2.25;;;21.70;61.20;;;;;;4982050;28;20209;-68
2023/06/06 08:21:54;;;;;;;2.50;2.30;;;21.70;61.20;;;;;;4988371;28;20239;-68
2023/06/06 08:24:20;;;;;;;2.28;2.08;;;21.70;61.10;;;;;;4976070;28;20237;-68
2023/06/06 08:26:46;;;;;;;2.50;2.30;;;21.70;61.10;;;;;;4968794;28;20201;-68
2023/06/06 08:29:12;;;;;;;2.35;2.15;;;21.70;61.10;;;;;;4955056;28;20220;-68
2023/06/06 08:31:37;;;;;;;2.10;1.90;;;21.70;61.20;;;;;;4988266;28;20239;-68
2023/06/06 08:34:03;;;;;;;2.38;2.17;;;21.70;61.10;;;;;;4988115;28;20182;-68
2023/06/06 08:36:29;;;;;;;2.10;2.00;;;21.70;61.00;;;;;;4957618;28;20192;-68
2023/06/06 08:38:55;;;;;;;2.30;2.10;;;21.70;61.10;;;;;;4985287;28;20221;-68
2023/06/06 08:41:23;;;;;;;2.08;1.88;;;21.70;61.00;;;;;;4971894;28;20181;-69
2023/06/06 08:43:52;;;;;;;2.25;2.10;;;21.80;61.20;;;;;;4965736;28;20190;-70
2023/06/06 08:46:19;;;;;;;2.30;2.10;;;21.70;61.10;;;;;;4989872;28;20185;-68
2023/06/06 08:48:46;;;;;;;1.90;1.80;;;21.80;61.20;;;;;;4976797;28;20209;-69
2023/06/06 08:51:13;;;;;;;2.20;2.08;;;21.80;61.10;;;;;;4975585;28;20221;-68
2023/06/06 08:53:39;;;;;;;2.33;2.13;;;21.80;61.10;;;;;;4972802;28;20562;-68
2023/06/06 08:56:08;;;;;;;2.15;1.98;;;21.80;61.10;;;;;;4988727;28;20193;-68
2023/06/06 08:58:36;;;;;;;2.35;2.17;;;21.80;61.10;;;;;;4986049;28;20697;-68
2023/06/06 09:01:05;;;;;;;2.15;1.95;;;21.80;61.20;;;;;;4982061;28;20194;-68
2023/06/06 09:03:38;;;;;;;2.63;2.35;;;21.80;61.20;;;;;;4957277;28;20202;-68
2023/06/06 09:06:05;;;;;;;2.40;2.20;;;21.80;61.20;;;;;;4964131;28;20218;-68
2023/06/06 09:08:32;;;;;;;2.47;2.28;;;21.90;61.30;;;;;;4956197;28;20213;-68
2023/06/06 09:10:57;;;;;;;2.25;2.10;;;21.80;61.20;;;;;;4972393;28;20193;-68
2023/06/06 09:13:23;;;;;;;2.30;2.20;;;21.80;61.30;;;;;;4976293;28;20225;-68
2023/06/06 09:15:49;;;;;;;2.13;1.92;;;21.80;61.30;;;;;;4976343;28;20224;-68
2023/06/06 09:18:15;;;;;;;2.30;2.10;;;21.80;61.40;;;;;;4974869;28;20237;-68
2023/06/06 09:20:42;;;;;;;2.40;2.20;;;21.80;61.30;;;;;;4976112;28;20637;-68
2023/06/06 09:23:13;;;;;;;1.95;1.80;;;21.90;61.40;;;;;;4967382;28;20653;-67
2023/06/06 09:25:47;;;;;;;2.25;2.05;;;21.90;61.40;;;;;;4990884;28;20297;-68
2023/06/06 09:28:13;;;;;;;2.28;2.15;;;21.90;61.40;;;;;;4973449;28;20225;-68
2023/06/06 09:30:39;;;;;;;2.03;1.92;;;21.90;61.50;;;;;;4982653;28;20182;-68
2023/06/06 09:33:05;;;;;;;2.47;2.28;;;21.90;61.50;;;;;;4989194;28;20185;-68
2023/06/06 09:35:37;;;;;;;2.30;1.92;;;21.80;61.20;;;;;;4983281;28;20201;-67
2023/06/06 09:38:19;;;;;;;2.50;2.30;;;21.80;61.30;;;;;;4977096;28;20223;-68
2023/06/06 09:40:51;;;;;;;2.03;1.90;;;21.90;61.30;;;;;;4990940;28;20193;-68
2023/06/06 09:43:24;;;;;;;2.45;2.25;;;21.90;61.40;;;;;;4974389;28;20193;-68
2023/06/06 09:46:04;;;;;;;2.50;2.28;;;21.90;61.50;;;;;;4990856;28;20213;-67
2023/06/06 09:48:29;;;;;;;2.70;2.50;;;21.90;61.30;;;;;;4971153;28;20241;-68
2023/06/06 09:50:57;;;;;;;2.40;2.20;;;21.90;61.30;;;;;;4987256;28;20221;-69
2023/06/06 09:53:28;;;;;;;2.10;2.00;;;21.90;61.20;;;;;;4990793;28;20236;-68
2023/06/06 09:55:58;;;;;;;2.67;2.47;;;21.90;61.30;;;;;;4978002;28;20200;-66
2023/06/06 09:58:27;;;;;;;2.92;2.72;;;21.90;61.30;;;;;;4989784;28;20213;-68
2023/06/06 10:00:58;;;;;;;2.45;2.28;;;21.90;61.50;;;;;;4990414;28;20177;-68
2023/06/06 10:03:25;;;;;;;2.55;2.35;;;21.90;61.20;;;;;;4979454;28;20201;-68
2023/06/06 10:05:52;;;;;;;2.67;2.47;;;21.90;61.30;;;;;;4971371;28;20221;-68
2023/06/06 10:08:21;;;;;;;2.42;2.22;;;21.90;61.20;;;;;;4990284;28;20205;-68
2023/06/06 10:10:49;;;;;;;2.58;2.38;;;21.90;61.20;;;;;;4974387;28;20193;-68
2023/06/06 10:13:22;;;;;;;2.55;2.38;;;21.90;61.40;;;;;;4990457;28;20181;-67
2023/06/06 10:15:50;;;;;;;2.88;2.30;;;21.90;61.10;;;;;;4987050;28;20194;-67
2023/06/06 10:18:16;;;;;;;2.53;2.33;;;21.90;61.30;;;;;;4989613;28;20213;-68
2023/06/06 10:20:44;;;;;;;2.25;1.98;;;21.90;61.40;;;;;;4990064;28;20285;-68
2023/06/06 10:23:10;;;;;;;2.88;2.47;;;21.90;61.30;;;;;;4975148;28;20185;-68
2023/06/06 10:25:37;;;;;;;2.75;2.30;;;21.90;61.30;;;;;;4987131;28;20241;-67
2023/06/06 10:28:26;;;;;;;2.97;2.67;;;21.90;61.40;;;;;;4986422;28;20724;-68
2023/06/06 10:31:14;;;;;;;2.50;2.30;;;21.90;61.30;;;;;;4985826;28;20192;-68
2023/06/06 10:33:56;;;;;;;2.50;2.30;;;21.90;61.30;;;;;;4984364;28;20185;-68
2023/06/06 10:36:22;;;;;;;2.30;2.13;;;21.90;61.10;;;;;;4986800;28;20191;-65
2023/06/06 10:39:22;;;;;;;2.25;2.05;;;21.90;61.00;;;;;;4969329;28;20209;-65
2023/06/06 10:42:12;;;;;;;2.90;2.47;;;21.90;61.20;;;;;;4975075;28;20247;-68
2023/06/06 10:44:55;;;;;;;2.60;2.40;;;21.90;61.30;;;;;;4973034;28;20225;-68
2023/06/06 10:47:23;;;;;;;3.40;2.40;;;21.90;61.10;;;;;;4989527;28;20267;-68
2023/06/06 10:50:07;;;;;;;2.25;2.05;;;21.90;61.10;;;;;;4989418;28;20209;-68
2023/06/06 10:53:06;;;;;;;2.60;2.40;;;21.90;60.90;;;;;;4974582;28;20192;-68
2023/06/06 10:55:32;;;;;;;2.72;2.33;;;22.00;61.00;;;;;;4967570;28;20244;-68
2023/06/06 10:58:10;;;;;;;2.65;2.45;;;21.90;60.90;;;;;;4965060;28;20218;-68
2023/06/06 11:00:41;;;;;;;2.60;2.40;;;21.90;61.00;;;;;;4978472;28;20190;-68
2023/06/06 11:03:10;;;;;;;2.72;2.50;;;21.90;61.00;;;;;;4971114;28;20193;-68
2023/06/06 11:06:01;;;;;;;2.97;2.78;;;21.90;61.00;;;;;;4989537;28;20240;-68
2023/06/06 11:08:41;;;;;;;2.63;2.42;;;21.90;60.90;;;;;;4988949;28;20296;-68
2023/06/06 11:11:30;;;;;;;2.05;1.95;;;21.90;60.90;;;;;;4986542;28;20225;-68
2023/06/06 11:14:00;;;;;;;2.13;1.92;;;21.90;60.80;;;;;;4966327;28;20244;-68
2023/06/06 11:16:41;;;;;;;2.58;2.25;;;22.00;61.00;;;;;;4981654;28;20240;-68
2023/06/06 11:19:15;;;;;;;2.58;2.40;;;22.00;61.10;;;;;;4964880;28;20248;-67
2023/06/06 11:21:45;;;;;;;2.72;2.53;;;22.00;61.20;;;;;;4974074;28;20244;-69
2023/06/06 11:24:12;;;;;;;2.53;2.33;;;21.90;61.00;;;;;;4979180;28;20296;-69
2023/06/06 11:26:41;;;;;;;2.00;1.90;;;22.00;61.10;;;;;;4988929;28;20189;-68
2023/06/06 11:29:10;;;;;;;3.63;2.33;;;22.00;61.30;;;;;;4988636;28;20287;-67
2023/06/06 11:31:38;;;;;;;2.38;2.17;;;22.00;61.30;;;;;;4984079;28;20182;-68
2023/06/06 11:34:07;;;;;;;2.45;2.25;;;22.00;61.20;;;;;;4953755;28;20178;-68
2023/06/06 11:36:39;;;;;;;2.70;2.50;;;22.00;61.30;;;;;;4988779;28;20186;-68
2023/06/06 11:39:07;;;;;;;2.10;2.00;;;22.00;61.00;;;;;;4971758;28;20728;-68
2023/06/06 11:41:45;;;;;;;2.80;2.20;;;22.00;60.90;;;;;;4966678;28;20190;-68
2023/06/06 11:44:11;;;;;;;2.38;2.17;;;22.00;60.70;;;;;;4988515;28;20263;-68
2023/06/06 11:46:52;;;;;;;2.58;2.38;;;22.00;60.90;;;;;;4988525;28;20248;-68
2023/06/06 11:49:21;;;;;;;2.50;2.30;;;22.00;60.90;;;;;;4988304;28;20217;-68
2023/06/06 11:52:00;;;;;;;2.65;2.45;;;22.00;60.90;;;;;;4985292;28;20179;-68
2023/06/06 11:54:28;;;;;;;3.28;2.75;;;22.00;60.80;;;;;;4988223;28;20212;-69
2023/06/06 11:56:59;;;;;;;2.67;2.15;;;22.00;61.00;;;;;;4972631;28;20200;-69
2023/06/06 11:59:26;;;;;;;2.65;2.45;;;22.00;61.00;;;;;;4988209;28;20264;-67
2023/06/06 12:01:53;;;;;;;3.38;2.25;;;22.00;61.00;;;;;;4988383;28;20189;-68
2023/06/06 12:04:21;;;;;;;2.85;2.38;;;22.00;61.20;;;;;;4988291;28;20693;-68
2023/06/06 12:06:49;;;;;;;2.35;2.15;;;22.00;61.00;;;;;;4973506;28;20220;-68
2023/06/06 12:09:16;;;;;;;2.20;2.10;;;22.00;61.30;;;;;;4988104;28;20216;-68
2023/06/06 12:11:59;;;;;;;2.35;2.15;;;22.00;61.20;;;;;;4988808;28;20252;-68
2023/06/06 12:14:27;;;;;;;2.35;2.17;;;22.00;60.90;;;;;;4953435;28;20204;-67
2023/06/06 12:17:02;;;;;;;2.88;2.63;;;22.00;60.80;;;;;;4980413;28;20209;-68
2023/06/06 12:19:27;;;;;;;2.40;2.20;;;22.10;61.00;;;;;;4988009;28;20209;-68
2023/06/06 12:21:53;;;;;;;2.65;2.15;;;22.00;61.00;;;;;;4986598;28;20194;-68
2023/06/06 12:24:21;;;;;;;2.30;2.10;;;22.00;61.00;;;;;;4992157;28;20252;-68
2023/06/06 12:26:53;;;;;;;2.50;2.30;;;22.10;61.00;;;;;;4992368;28;20193;-68
2023/06/06 12:29:26;;;;;;;2.47;2.28;;;22.10;61.00;;;;;;4975809;28;20213;-68
2023/06/06 12:32:29;;;;;;;2.63;2.42;;;22.10;61.00;;;;;;4992200;28;20194;-68
2023/06/06 12:35:05;;;;;;;2.90;2.70;;;22.10;61.20;;;;;;4992527;28;20192;-68
2023/06/06 12:37:42;;;;;;;2.42;2.30;;;22.00;61.00;;;;;;4991828;28;20205;-68
2023/06/06 12:40:20;;;;;;;2.13;2.03;;;22.10;61.00;;;;;;4983920;28;20189;-68
2023/06/06 12:42:54;;;;;;;2.42;2.13;;;22.10;60.80;;;;;;4975764;28;20257;-68
2023/06/06 12:45:21;;;;;;;2.80;2.60;;;22.00;60.70;;;;;;4983723;28;20264;-68
2023/06/06 12:47:50;;;;;;;3.17;2.38;;;22.00;60.60;;;;;;4988477;28;20202;-68
2023/06/06 12:50:20;;;;;;;2.05;1.90;;;22.10;60.90;;;;;;4972226;28;20194;-68
2023/06/06 12:52:47;;;;;;;2.60;2.40;;;22.00;61.00;;;;;;4986269;28;20592;-68
2023/06/06 12:55:14;;;;;;;2.90;2.40;;;22.10;61.20;;;;;;4958407;28;20280;-68
2023/06/06 12:57:40;;;;;;;2.50;2.30;;;22.10;60.80;;;;;;4965391;28;20225;-68